Currently 86°F in San Jacinto, California, USA
86°F
94°F / 69°F
10 mph SW
0.00"
Monday, August 20, 2018 5:58 PM PDT

San Jacinto, California Weather Summary
Last 36 Hours

Temperature Winds Hourly Humidity Dewpoint
Time Report Norm Report Norm Max Gusts Precip. Rpt. Norm Rpt. Norm Pressure
1Mon 05:58 PM  86.2°F  89°F  10 mph SW  4 mph  17 mph  0.00"  47%  26%  63°F  49°F  29.90"
Mon 05:00 PM  88.2°F  92°F  11 mph SW  5 mph  15 mph  0.00"  43%  24%  62°F  48°F  29.90"
Mon 04:00 PM  90.7°F  94°F  9 mph SW  5 mph  18 mph  0.00"  39%  22%  62°F  47°F  29.89"
Mon 03:00 PM  93.4°F  94°F  6 mph S  4 mph  16 mph  0.00"  33%  21%  59°F  46°F  29.91"
Mon 02:00 PM  93.6°F  93°F  11 mph SW  3 mph  15 mph  0.00"  36%  22%  62°F  46°F  29.92"
2Mon 01:54 PM  93.9°F  93°F  10 mph SW  3 mph  15 mph  ----  37%  22%  63°F  46°F  29.92"
Mon 01:00 PM  91.8°F  91°F  2 mph NE  3 mph  10 mph  0.00"  40%  24%  63°F  48°F  29.93"
Mon 12:00 PM  87.3°F  88°F  1 mph W  2 mph  9 mph  0.00"  49%  28%  65°F  50°F  29.95"
Mon 11:00 AM  82.6°F  84°F  4 mph W  1 mph  8 mph  0.00"  57%  34%  65°F  52°F  29.97"
Mon 10:00 AM  78.3°F  79°F  3 mph NW  1 mph  7 mph  0.00"  66%  42%  66°F  53°F  29.98"
Mon 09:00 AM  74.8°F  74°F  2 mph W  calm  3 mph  0.00"  73%  50%  65°F  54°F  29.98"
Mon 08:00 AM  70.7°F  70°F  2 mph SE  calm  6 mph  0.00"  82%  58%  65°F  53°F  29.98"
Mon 07:00 AM  69.3°F  65°F  2 mph S  calm  5 mph  0.00"  82%  65%  63°F  53°F  29.97"
3Mon 06:30 AM  69.3°F  64°F  2 mph SW  calm  3 mph  ----  80%  66%  63°F  52°F  29.95"
Mon 06:00 AM  70.2°F  65°F  2 mph SW  calm  3 mph  0.00"  77%  66%  62°F  53°F  29.94"
Mon 05:00 AM  71.4°F  66°F  1 mph SW  calm  3 mph  0.00"  73%  64%  62°F  53°F  29.93"
Mon 04:00 AM  72.7°F  66°F  calm  calm  3 mph  0.00"  70%  63%  62°F  53°F  29.92"
Mon 03:00 AM  73.8°F  68°F  calm  calm  none  0.00"  67%  62%  62°F  54°F  29.91"
Mon 02:00 AM  74.7°F  69°F  calm  calm  3 mph  0.00"  66%  60%  62°F  54°F  29.91"
Mon 01:00 AM  75.6°F  70°F  calm  calm  2 mph  0.00"  64%  59%  62°F  54°F  29.92"
Mon 12:00 AM  76.8°F  72°F  1 mph SW  calm  3 mph  0.00"  61%  55%  62°F  54°F  29.91"
Sun 11:00 PM  78.1°F  74°F  1 mph SW  calm  3 mph  0.00"  58%  52%  62°F  54°F  29.91"
Sun 10:00 PM  79.5°F  75°F  2 mph SW  calm  6 mph  0.00"  55%  48%  61°F  54°F  29.91"
Sun 09:00 PM  80.4°F  77°F  2 mph S  1 mph  5 mph  0.00"  56%  44%  63°F  53°F  29.90"
Sun 08:00 PM  82.0°F  81°F  3 mph S  2 mph  14 mph  0.00"  52%  38%  62°F  52°F  29.89"
Sun 07:00 PM  86.5°F  85°F  8 mph SW  3 mph  17 mph  0.00"  43%  31%  61°F  50°F  29.87"
Sun 06:00 PM  91.9°F  90°F  7 mph SW  5 mph  14 mph  0.00"  38%  25%  62°F  48°F  29.86"
Sun 05:00 PM  93.6°F  92°F  5 mph S  5 mph  21 mph  0.00"  38%  23%  63°F  48°F  29.85"
Sun 04:00 PM  96.4°F  94°F  11 mph SW  5 mph  20 mph  0.00"  33%  21%  62°F  46°F  29.86"
Sun 03:00 PM  98.8°F  94°F  7 mph SW  5 mph  17 mph  0.00"  30%  20%  61°F  45°F  29.87"
Sun 02:00 PM  98.1°F  93°F  6 mph S  3 mph  11 mph  0.00"  29%  21%  59°F  46°F  29.90"
Sun 01:01 PM  94.8°F  91°F  2 mph W  3 mph  6 mph  0.00"  33%  23%  60°F  46°F  29.92"
Sun 12:00 PM  89.8°F  88°F  2 mph SW  2 mph  9 mph  0.00"  41%  27%  62°F  49°F  29.95"
Sun 11:00 AM  84.6°F  84°F  3 mph W  1 mph  9 mph  0.00"  46%  33%  61°F  51°F  29.97"
Sun 10:00 AM  81.9°F  79°F  3 mph W  1 mph  5 mph  0.00"  51%  41%  61°F  53°F  29.98"
Sun 09:00 AM  77.0°F  74°F  2 mph SW  1 mph  3 mph  0.00"  59%  50%  61°F  54°F  29.99"
Sun 08:00 AM  72.5°F  69°F  calm  calm  3 mph  0.00"  69%  58%  61°F  53°F  30.00"
Sun 07:00 AM  69.8°F  65°F  calm  calm  2 mph  0.00"  75%  65%  61°F  52°F  29.99"
Sun 06:00 AM  69.4°F  64°F  calm  calm  none  0.00"  74%  65%  60°F  52°F  29.99"

  1. Current weather data. No green row appears if the current weather data is also the high or low for the current day.
  2. High temperature for the current day.
  3. Low temperature for the current day.

The San Jacinto, California weather pages are a service of WeatherCurrents. San Jacinto is located in the heart of the San Jacinto Valley, near Hemet, the Soboba Casino, and at the foot of the San Jacinto Mountains.
Copyright ©Mon Aug 20 17:59:30 PDT 2018  WeatherCurrents. All rights reserved. - Submit questions and comments - Privacy Policy

This page automatically refreshes every 10 minutes.